sensor_id;sensor_type;location;lat;lon;timestamp;pressure;altitude;pressure_sealevel;temperature;humidity
47166;BME280;32930;51.112;13.762;2023-03-05T00:09:24;99298.84;;;4.91;77.12
47166;BME280;32930;51.112;13.762;2023-03-05T00:11:50;99305.16;;;4.72;76.87
47166;BME280;32930;51.112;13.762;2023-03-05T00:14:16;99302.81;;;4.80;77.75
47166;BME280;32930;51.112;13.762;2023-03-05T00:16:42;99293.47;;;4.79;77.35
47166;BME280;32930;51.112;13.762;2023-03-05T00:19:08;99296.88;;;4.79;76.65
47166;BME280;32930;51.112;13.762;2023-03-05T00:21:37;99298.06;;;4.94;76.23
47166;BME280;32930;51.112;13.762;2023-03-05T00:34:13;99275.72;;;4.80;76.99
47166;BME280;32930;51.112;13.762;2023-03-05T00:39:14;99276.50;;;4.78;76.87
47166;BME280;32930;51.112;13.762;2023-03-05T00:44:11;99271.09;;;4.64;77.20
47166;BME280;32930;51.112;13.762;2023-03-05T00:46:37;99266.94;;;4.68;76.65
47166;BME280;32930;51.112;13.762;2023-03-05T00:49:03;99270.16;;;4.60;77.74
47166;BME280;32930;51.112;13.762;2023-03-05T00:51:29;99267.78;;;4.67;78.03
47166;BME280;32930;51.112;13.762;2023-03-05T00:53:55;99258.03;;;4.85;76.38
47166;BME280;32930;51.112;13.762;2023-03-05T00:56:20;99259.84;;;4.91;75.18
47166;BME280;32930;51.112;13.762;2023-03-05T00:58:49;99254.69;;;4.86;75.03
47166;BME280;32930;51.112;13.762;2023-03-05T01:01:15;99250.31;;;4.80;74.77
47166;BME280;32930;51.112;13.762;2023-03-05T01:03:41;99244.84;;;4.63;75.09
47166;BME280;32930;51.112;13.762;2023-03-05T01:13:46;99239.78;;;4.65;76.12
47166;BME280;32930;51.112;13.762;2023-03-05T01:16:12;99240.63;;;4.64;75.19
47166;BME280;32930;51.112;13.762;2023-03-05T01:18:38;99234.75;;;4.67;74.44
47166;BME280;32930;51.112;13.762;2023-03-05T01:43:49;99214.31;;;4.62;72.07
47166;BME280;32930;51.112;13.762;2023-03-05T01:46:38;99210.63;;;4.51;71.61
47166;BME280;32930;51.112;13.762;2023-03-05T01:51:50;99214.63;;;4.39;72.14
47166;BME280;32930;51.112;13.762;2023-03-05T04:37:48;99111.56;;;3.78;67.17
47166;BME280;32930;51.112;13.762;2023-03-05T04:40:14;99111.06;;;3.91;66.83
47166;BME280;32930;51.112;13.762;2023-03-05T04:42:40;99112.72;;;3.89;67.41
47166;BME280;32930;51.112;13.762;2023-03-05T04:45:06;99101.31;;;3.74;67.93
47166;BME280;32930;51.112;13.762;2023-03-05T04:47:32;99102.25;;;3.77;67.96
47166;BME280;32930;51.112;13.762;2023-03-05T04:49:58;99102.22;;;3.76;68.44
47166;BME280;32930;51.112;13.762;2023-03-05T04:52:24;99101.81;;;3.93;68.36
47166;BME280;32930;51.112;13.762;2023-03-05T04:54:50;99105.41;;;4.02;68.44
47166;BME280;32930;51.112;13.762;2023-03-05T04:57:16;99093.31;;;3.91;69.43
47166;BME280;32930;51.112;13.762;2023-03-05T04:59:41;99096.81;;;3.97;68.55
47166;BME280;32930;51.112;13.762;2023-03-05T05:02:07;99097.03;;;4.06;69.71
47166;BME280;32930;51.112;13.762;2023-03-05T05:04:33;99108.03;;;4.06;70.57
47166;BME280;32930;51.112;13.762;2023-03-05T05:12:53;99110.03;;;3.83;74.57
47166;BME280;32930;51.112;13.762;2023-03-05T05:15:19;99104.16;;;3.86;74.21
47166;BME280;32930;51.112;13.762;2023-03-05T05:17:45;99096.72;;;3.92;73.97
47166;BME280;32930;51.112;13.762;2023-03-05T05:20:12;99099.63;;;3.74;74.23
47166;BME280;32930;51.112;13.762;2023-03-05T05:25:08;99088.72;;;3.77;74.32
47166;BME280;32930;51.112;13.762;2023-03-05T05:27:35;99090.50;;;3.81;73.89
47166;BME280;32930;51.112;13.762;2023-03-05T05:30:01;99087.19;;;3.83;74.09
47166;BME280;32930;51.112;13.762;2023-03-05T05:32:28;99085.41;;;3.79;73.85
47166;BME280;32930;51.112;13.762;2023-03-05T05:34:55;99085.09;;;4.02;72.79
47166;BME280;32930;51.112;13.762;2023-03-05T05:37:23;99083.47;;;3.69;74.68
47166;BME280;32930;51.112;13.762;2023-03-05T05:39:51;99078.25;;;3.64;74.76
47166;BME280;32930;51.112;13.762;2023-03-05T05:42:23;99088.22;;;3.57;75.42
47166;BME280;32930;51.112;13.762;2023-03-05T05:44:49;99083.66;;;3.78;74.30
47166;BME280;32930;51.112;13.762;2023-03-05T05:47:16;99086.47;;;3.89;74.63
47166;BME280;32930;51.112;13.762;2023-03-05T05:49:41;99082.03;;;3.80;73.20
47166;BME280;32930;51.112;13.762;2023-03-05T05:52:08;99093.81;;;3.78;72.67
47166;BME280;32930;51.112;13.762;2023-03-05T05:54:33;99086.56;;;3.93;72.14
47166;BME280;32930;51.112;13.762;2023-03-05T05:56:59;99091.44;;;3.84;72.92
47166;BME280;32930;51.112;13.762;2023-03-05T05:59:25;99090.03;;;3.62;73.64
47166;BME280;32930;51.112;13.762;2023-03-05T06:01:53;99091.94;;;3.69;72.98
47166;BME280;32930;51.112;13.762;2023-03-05T06:04:19;99092.84;;;3.73;73.54
47166;BME280;32930;51.112;13.762;2023-03-05T06:06:44;99082.78;;;3.76;72.64
47166;BME280;32930;51.112;13.762;2023-03-05T06:09:10;99082.75;;;3.75;72.92
47166;BME280;32930;51.112;13.762;2023-03-05T06:11:37;99074.97;;;4.03;71.91
47166;BME280;32930;51.112;13.762;2023-03-05T06:14:09;99084.84;;;3.91;71.63
47166;BME280;32930;51.112;13.762;2023-03-05T06:16:35;99089.47;;;3.72;72.67
47166;BME280;32930;51.112;13.762;2023-03-05T06:19:01;99088.63;;;3.74;72.92
47166;BME280;32930;51.112;13.762;2023-03-05T06:24:04;99092.31;;;3.85;71.57
47166;BME280;32930;51.112;13.762;2023-03-05T06:26:30;99082.25;;;3.89;71.33
47166;BME280;32930;51.112;13.762;2023-03-05T06:29:06;99083.03;;;3.85;71.62
47166;BME280;32930;51.112;13.762;2023-03-05T06:31:32;99078.53;;;4.10;71.33
47166;BME280;32930;51.112;13.762;2023-03-05T06:33:59;99078.31;;;4.01;70.43
47166;BME280;32930;51.112;13.762;2023-03-05T06:36:28;99082.66;;;4.06;70.22
47166;BME280;32930;51.112;13.762;2023-03-05T06:38:55;99085.66;;;3.90;70.45
47166;BME280;32930;51.112;13.762;2023-03-05T06:41:26;99078.69;;;4.17;69.79
47166;BME280;32930;51.112;13.762;2023-03-05T06:43:54;99087.78;;;4.08;70.38
47166;BME280;32930;51.112;13.762;2023-03-05T06:46:26;99079.03;;;3.97;71.01
47166;BME280;32930;51.112;13.762;2023-03-05T06:48:55;99084.88;;;3.92;71.05
47166;BME280;32930;51.112;13.762;2023-03-05T06:56:23;99077.66;;;4.09;70.60
47166;BME280;32930;51.112;13.762;2023-03-05T06:58:50;99082.50;;;4.00;71.23
47166;BME280;32930;51.112;13.762;2023-03-05T07:01:16;99076.50;;;3.97;71.11
47166;BME280;32930;51.112;13.762;2023-03-05T07:03:43;99084.34;;;4.06;71.89
47166;BME280;32930;51.112;13.762;2023-03-05T07:06:14;99088.34;;;3.96;72.51
47166;BME280;32930;51.112;13.762;2023-03-05T07:08:41;99082.78;;;3.76;73.42
47166;BME280;32930;51.112;13.762;2023-03-05T07:11:16;99082.25;;;3.88;73.73
47166;BME280;32930;51.112;13.762;2023-03-05T07:13:43;99085.94;;;4.02;74.09
47166;BME280;32930;51.112;13.762;2023-03-05T07:16:29;99088.94;;;3.86;76.50
47166;BME280;32930;51.112;13.762;2023-03-05T07:18:58;99085.50;;;3.84;77.57
47166;BME280;32930;51.112;13.762;2023-03-05T07:21:26;99090.56;;;3.84;77.79
47166;BME280;32930;51.112;13.762;2023-03-05T07:23:54;99086.34;;;3.84;77.57
47166;BME280;32930;51.112;13.762;2023-03-05T07:26:21;99087.09;;;3.79;78.26
47166;BME280;32930;51.112;13.762;2023-03-05T07:28:47;99085.09;;;3.67;79.83
47166;BME280;32930;51.112;13.762;2023-03-05T07:31:24;99081.72;;;3.66;79.62
47166;BME280;32930;51.112;13.762;2023-03-05T07:34:03;99084.19;;;3.65;78.99
47166;BME280;32930;51.112;13.762;2023-03-05T07:36:30;99077.63;;;3.73;80.81
47166;BME280;32930;51.112;13.762;2023-03-05T07:38:59;99070.78;;;3.69;80.67
47166;BME280;32930;51.112;13.762;2023-03-05T07:41:25;99080.72;;;3.96;79.95
47166;BME280;32930;51.112;13.762;2023-03-05T07:58:54;99064.09;;;4.07;78.73
47166;BME280;32930;51.112;13.762;2023-03-05T08:01:20;99057.25;;;4.05;78.22
47166;BME280;32930;51.112;13.762;2023-03-05T08:03:46;99059.50;;;4.29;77.31
47166;BME280;32930;51.112;13.762;2023-03-05T08:08:41;99059.03;;;4.09;78.83
47166;BME280;32930;51.112;13.762;2023-03-05T08:11:12;99060.09;;;4.18;78.75
47166;BME280;32930;51.112;13.762;2023-03-05T08:13:39;99057.03;;;3.95;80.78
47166;BME280;32930;51.112;13.762;2023-03-05T08:16:11;99054.94;;;4.15;78.79
47166;BME280;32930;51.112;13.762;2023-03-05T08:18:39;99054.00;;;4.10;80.75
47166;BME280;32930;51.112;13.762;2023-03-05T08:21:05;99056.84;;;4.24;80.74
47166;BME280;32930;51.112;13.762;2023-03-05T08:23:32;99054.84;;;4.11;83.20
47166;BME280;32930;51.112;13.762;2023-03-05T08:25:59;99050.16;;;4.28;84.29
47166;BME280;32930;51.112;13.762;2023-03-05T08:28:25;99041.22;;;4.45;83.59
47166;BME280;32930;51.112;13.762;2023-03-05T08:30:51;99042.88;;;4.43;83.26
47166;BME280;32930;51.112;13.762;2023-03-05T08:33:17;99041.16;;;4.42;84.51
47166;BME280;32930;51.112;13.762;2023-03-05T08:35:46;99045.56;;;4.51;84.78
47166;BME280;32930;51.112;13.762;2023-03-05T08:38:11;99041.50;;;4.57;83.89
47166;BME280;32930;51.112;13.762;2023-03-05T08:40:37;99037.28;;;4.58;84.76
47166;BME280;32930;51.112;13.762;2023-03-05T10:10:53;98970.41;;;5.04;88.64
47166;BME280;32930;51.112;13.762;2023-03-05T10:13:31;98969.16;;;5.31;88.11
47166;BME280;32930;51.112;13.762;2023-03-05T10:16:25;98964.50;;;5.05;85.63
47166;BME280;32930;51.112;13.762;2023-03-05T10:27:40;98954.34;;;5.07;81.28
47166;BME280;32930;51.112;13.762;2023-03-05T10:35:58;98943.78;;;5.35;79.82
47166;BME280;32930;51.112;13.762;2023-03-05T10:41:10;98935.81;;;5.67;78.24
47166;BME280;32930;51.112;13.762;2023-03-05T11:23:29;98900.84;;;5.52;73.84
47166;BME280;32930;51.112;13.762;2023-03-05T12:13:39;98851.00;;;5.67;75.59
47166;BME280;32930;51.112;13.762;2023-03-05T12:24:51;98830.59;;;5.62;76.03
47166;BME280;32930;51.112;13.762;2023-03-05T19:04:10;98669.59;;;4.41;85.69
47166;BME280;32930;51.112;13.762;2023-03-05T19:06:36;98672.84;;;4.34;86.13
47166;BME280;32930;51.112;13.762;2023-03-05T19:11:35;98668.72;;;4.41;85.58
47166;BME280;32930;51.112;13.762;2023-03-05T19:14:01;98675.28;;;4.28;85.88
47166;BME280;32930;51.112;13.762;2023-03-05T19:16:28;98672.81;;;4.31;86.41
47166;BME280;32930;51.112;13.762;2023-03-05T19:19:04;98666.03;;;4.32;86.35
47166;BME280;32930;51.112;13.762;2023-03-05T19:21:40;98667.72;;;4.31;88.05
47166;BME280;32930;51.112;13.762;2023-03-05T19:24:09;98661.84;;;4.32;85.84
47166;BME280;32930;51.112;13.762;2023-03-05T19:26:36;98666.03;;;4.32;86.39
47166;BME280;32930;51.112;13.762;2023-03-05T19:29:02;98662.69;;;4.33;87.01
47166;BME280;32930;51.112;13.762;2023-03-05T19:34:00;98658.25;;;4.21;87.89
47166;BME280;32930;51.112;13.762;2023-03-05T19:36:26;98655.06;;;4.33;87.00
47166;BME280;32930;51.112;13.762;2023-03-05T19:38:52;98647.03;;;4.61;84.58
47166;BME280;32930;51.112;13.762;2023-03-05T19:41:17;98645.28;;;4.59;84.80
47166;BME280;32930;51.112;13.762;2023-03-05T19:43:45;98641.16;;;4.64;85.28
47166;BME280;32930;51.112;13.762;2023-03-05T19:46:11;98645.25;;;4.54;85.24
47166;BME280;32930;51.112;13.762;2023-03-05T20:01:34;98640.22;;;4.59;86.69
47166;BME280;32930;51.112;13.762;2023-03-05T20:04:01;98635.72;;;4.41;87.53
47166;BME280;32930;51.112;13.762;2023-03-05T21:22:03;98547.59;;;4.34;87.31
47166;BME280;32930;51.112;13.762;2023-03-05T21:24:29;98545.41;;;4.58;85.17
47166;BME280;32930;51.112;13.762;2023-03-05T21:27:06;98545.22;;;4.46;85.52
